Time;durP1;ratioP1;P1;durP2;ratioP2;P2;SDS_P1;SDS_P2;PMS_P1;PMS_P2;Temp;Humidity;BMP_temperature;BMP_pressure;BME280_temperature;BME280_humidity;BME280_pressure;Samples;Min_cycle;Max_cycle;Signal;HPM_P1;HPM_P2
2022/09/29 00:00:54;;;;;;;1999.90;999.90;;;19.30;99.90;;;;;;5226529;28;20013;-63
2022/09/29 00:03:25;;;;;;;1999.90;999.90;;;19.30;99.90;;;;;;5226544;28;20051;-63
2022/09/29 00:05:56;;;;;;;1999.90;999.90;;;19.30;99.90;;;;;;5226500;28;20120;-63
2022/09/29 00:08:28;;;;;;;1999.90;999.90;;;19.30;99.90;;;;;;5225803;28;20148;-63
2022/09/29 00:10:59;;;;;;;1999.90;999.90;;;19.30;99.90;;;;;;5226325;28;20377;-62
2022/09/29 00:13:30;;;;;;;1999.90;999.90;;;19.30;99.90;;;;;;5226197;28;20029;-63
2022/09/29 00:16:02;;;;;;;1999.90;999.90;;;19.30;99.90;;;;;;5226384;28;20028;-62
2022/09/29 00:18:34;;;;;;;1999.90;999.90;;;19.30;99.90;;;;;;5226258;28;20025;-63
2022/09/29 00:21:11;;;;;;;1999.90;999.90;;;19.20;99.90;;;;;;5226341;28;20025;-63
2022/09/29 00:23:42;;;;;;;1999.90;999.90;;;19.20;99.90;;;;;;5226178;28;20025;-63
2022/09/29 00:26:22;;;;;;;1999.90;999.90;;;19.20;99.90;;;;;;5225971;28;20384;-63
2022/09/29 00:28:56;;;;;;;1999.90;999.90;;;19.20;99.90;;;;;;5226088;28;20056;-63
2022/09/29 00:31:29;;;;;;;1999.90;999.90;;;19.20;99.90;;;;;;5226080;28;20087;-63
2022/09/29 00:34:01;;;;;;;1999.90;999.90;;;19.20;99.90;;;;;;5226024;28;20361;-62
2022/09/29 00:36:32;;;;;;;1999.90;999.90;;;19.30;99.90;;;;;;5226200;28;20013;-62
2022/09/29 00:39:03;;;;;;;1999.90;999.90;;;19.20;99.90;;;;;;5226103;28;20029;-66
2022/09/29 00:41:36;;;;;;;1999.90;999.90;;;19.30;99.90;;;;;;5225970;28;20013;-62
2022/09/29 00:44:13;;;;;;;1999.90;999.90;;;19.20;99.90;;;;;;5225953;28;20028;-62
2022/09/29 00:47:03;;;;;;;1999.90;999.90;;;19.20;99.90;;;;;;5225976;28;20029;-62
2022/09/29 00:49:39;;;;;;;1999.90;999.90;;;19.20;99.90;;;;;;5225866;28;20503;-62
2022/09/29 00:52:15;;;;;;;1999.90;999.90;;;19.10;99.90;;;;;;5225933;28;20021;-62
2022/09/29 00:55:01;;;;;;;1999.90;999.90;;;19.20;99.90;;;;;;5225706;28;20408;-63
2022/09/29 00:57:39;;;;;;;1999.90;999.90;;;19.10;99.90;;;;;;5225434;28;20057;-63
2022/09/29 01:00:12;;;;;;;1999.90;999.90;;;19.10;99.90;;;;;;5225598;28;20035;-63
2022/09/29 01:02:51;;;;;;;1999.90;999.90;;;19.10;99.90;;;;;;5225656;28;20027;-63
2022/09/29 01:05:32;;;;;;;1999.90;999.90;;;19.20;99.90;;;;;;5225879;28;20036;-63
2022/09/29 01:08:38;;;;;;;1999.90;999.90;;;19.20;99.90;;;;;;5225623;28;20044;-63
2022/09/29 01:11:11;;;;;;;1999.90;999.90;;;19.20;99.90;;;;;;5194534;28;20068;-63
2022/09/29 01:13:42;;;;;;;1999.90;999.90;;;19.10;99.90;;;;;;5225541;28;20116;-62
2022/09/29 01:16:13;;;;;;;1999.90;999.90;;;19.00;99.90;;;;;;5225593;28;20111;-63
2022/09/29 01:18:45;;;;;;;1999.90;999.90;;;19.00;99.90;;;;;;5226202;28;20025;-63
2022/09/29 01:21:45;;;;;;;1999.90;999.90;;;19.10;99.90;;;;;;5229736;28;20053;-62
2022/09/29 01:24:44;;;;;;;1999.90;999.90;;;19.00;99.90;;;;;;5229761;28;20024;-62
2022/09/29 01:27:33;;;;;;;1999.90;999.90;;;19.00;99.90;;;;;;5229556;28;20041;-63
2022/09/29 01:30:11;;;;;;;1999.90;999.90;;;19.10;99.90;;;;;;5229448;28;20028;-66
2022/09/29 01:33:11;;;;;;;1999.90;999.90;;;19.20;99.90;;;;;;5229985;28;20399;-69
2022/09/29 01:36:09;;;;;;;1999.90;999.90;;;19.10;99.90;;;;;;5229931;28;20040;-65
2022/09/29 01:39:14;;;;;;;1999.90;999.90;;;19.20;99.90;;;;;;5230082;28;20090;-64
2022/09/29 01:42:26;;;;;;;1999.90;999.90;;;19.10;99.90;;;;;;5230433;28;20350;-71
2022/09/29 01:45:12;;;;;;;1999.90;999.90;;;19.10;99.90;;;;;;5229705;28;20871;-63
2022/09/29 01:47:54;;;;;;;1999.90;999.90;;;19.10;99.90;;;;;;5229199;28;20041;-62
2022/09/29 01:50:46;;;;;;;1999.90;999.90;;;19.00;99.90;;;;;;5229267;28;20017;-63
2022/09/29 01:53:46;;;;;;;1999.90;999.90;;;19.10;99.90;;;;;;5229238;28;20091;-63
2022/09/29 01:56:36;;;;;;;1999.90;999.90;;;19.10;99.90;;;;;;5218679;28;20444;-63
2022/09/29 01:59:17;;;;;;;1999.90;999.90;;;19.10;99.90;;;;;;5229201;28;20060;-62
2022/09/29 02:01:50;;;;;;;1999.90;999.90;;;19.10;99.90;;;;;;5229004;28;20036;-63
2022/09/29 02:04:31;;;;;;;1999.90;999.90;;;19.10;99.90;;;;;;5229198;28;20052;-63
2022/09/29 02:07:30;;;;;;;1999.90;999.90;;;19.10;99.90;;;;;;5229303;28;20071;-63
2022/09/29 02:10:09;;;;;;;1999.90;999.90;;;19.10;99.90;;;;;;5229317;28;20098;-63
2022/09/29 02:12:42;;;;;;;1999.90;999.90;;;19.10;99.90;;;;;;5229461;28;20025;-65
2022/09/29 02:15:20;;;;;;;1999.90;999.90;;;19.00;99.90;;;;;;5229245;28;20057;-63
2022/09/29 02:17:56;;;;;;;1999.90;999.90;;;19.10;99.90;;;;;;5229083;28;20025;-63
2022/09/29 02:20:27;;;;;;;1999.90;999.90;;;19.00;99.90;;;;;;5228877;28;20364;-62
2022/09/29 02:22:58;;;;;;;1999.90;999.90;;;19.10;99.90;;;;;;5228597;28;20032;-63
2022/09/29 02:25:33;;;;;;;1999.90;999.90;;;19.10;99.90;;;;;;5228713;28;20029;-63
2022/09/29 02:28:04;;;;;;;1999.90;999.90;;;19.50;99.90;;;;;;5228374;28;20041;-63
2022/09/29 02:30:35;;;;;;;1999.90;999.90;;;19.20;99.90;;;;;;5227898;28;20079;-63
2022/09/29 02:33:20;;;;;;;1999.90;999.90;;;19.10;99.90;;;;;;5228407;28;20688;-63
2022/09/29 02:36:05;;;;;;;1999.90;999.90;;;19.10;99.90;;;;;;5228280;28;20032;-62
2022/09/29 02:38:56;;;;;;;1999.90;999.90;;;19.20;99.90;;;;;;5228387;28;20035;-63
2022/09/29 02:41:48;;;;;;;1999.90;999.90;;;19.00;99.90;;;;;;5228436;28;20051;-63
2022/09/29 02:44:51;;;;;;;1999.90;999.90;;;19.10;99.90;;;;;;5228177;28;20457;-63
2022/09/29 02:47:51;;;;;;;1999.90;999.90;;;19.10;99.90;;;;;;5227537;28;20037;-63
2022/09/29 02:50:36;;;;;;;1999.90;999.90;;;19.20;99.90;;;;;;5211929;28;20076;-63
2022/09/29 02:53:16;;;;;;;1999.90;999.90;;;19.20;99.90;;;;;;5228081;28;20021;-63
2022/09/29 02:56:13;;;;;;;1999.90;999.90;;;19.10;99.90;;;;;;5228205;28;20025;-63
2022/09/29 02:58:54;;;;;;;1999.90;999.90;;;19.20;99.90;;;;;;5227679;28;20289;-63
2022/09/29 03:01:28;;;;;;;1999.90;999.90;;;19.20;99.90;;;;;;5227863;28;20017;-62
2022/09/29 03:04:00;;;;;;;1999.90;999.90;;;19.10;99.90;;;;;;5227796;28;20035;-63
2022/09/29 03:06:31;;;;;;;1999.90;999.90;;;19.00;99.90;;;;;;5227844;28;20037;-62
2022/09/29 03:09:02;;;;;;;1999.90;999.90;;;19.10;99.90;;;;;;5227699;28;20043;-62
2022/09/29 03:11:32;;;;;;;1999.90;999.90;;;19.20;99.90;;;;;;5227612;28;20028;-63
2022/09/29 03:14:05;;;;;;;1999.90;999.90;;;19.10;99.90;;;;;;5227683;28;20468;-63
2022/09/29 03:16:36;;;;;;;1999.90;999.90;;;19.00;99.90;;;;;;5227756;28;20043;-63
2022/09/29 03:19:07;;;;;;;1999.90;999.90;;;19.00;99.90;;;;;;5227852;28;20033;-63
2022/09/29 03:21:38;;;;;;;1999.90;999.90;;;19.10;99.90;;;;;;5227567;28;20374;-62
2022/09/29 03:24:08;;;;;;;1999.90;999.90;;;19.20;99.90;;;;;;5227320;28;20069;-63
2022/09/29 03:26:39;;;;;;;1999.90;999.90;;;19.20;99.90;;;;;;5227859;28;20025;-63
2022/09/29 03:29:10;;;;;;;1999.90;999.90;;;19.20;99.90;;;;;;5227545;28;20396;-62
2022/09/29 03:31:41;;;;;;;1999.90;999.90;;;19.10;99.90;;;;;;5209413;28;20096;-63
2022/09/29 03:34:12;;;;;;;1999.90;999.90;;;19.20;99.90;;;;;;5227210;28;20017;-63
2022/09/29 03:36:42;;;;;;;1999.90;999.90;;;19.20;99.90;;;;;;5227131;28;20100;-63
2022/09/29 03:39:14;;;;;;;1999.90;999.90;;;19.30;99.90;;;;;;5227026;28;20028;-63
2022/09/29 03:41:44;;;;;;;1999.90;999.90;;;19.30;99.90;;;;;;5226221;28;20500;-63
2022/09/29 03:44:16;;;;;;;1999.90;999.90;;;19.30;99.90;;;;;;5226899;28;20049;-63
2022/09/29 03:46:46;;;;;;;1999.90;999.90;;;19.30;99.90;;;;;;5226896;28;20513;-63
2022/09/29 03:49:17;;;;;;;1999.90;999.90;;;19.30;99.90;;;;;;5226647;28;20159;-62
2022/09/29 03:51:48;;;;;;;1999.90;999.90;;;19.30;99.90;;;;;;5226897;28;20029;-63
2022/09/29 03:54:19;;;;;;;1999.90;999.90;;;19.20;99.90;;;;;;5226752;28;20024;-70
2022/09/29 03:56:50;;;;;;;1999.90;999.90;;;19.30;99.90;;;;;;5226666;28;20104;-62
2022/09/29 03:59:21;;;;;;;1999.90;999.90;;;19.20;99.90;;;;;;5226673;28;20032;-63
2022/09/29 04:01:52;;;;;;;1999.90;999.90;;;19.30;99.90;;;;;;5226656;28;20016;-62
2022/09/29 04:04:23;;;;;;;1999.90;999.90;;;19.30;99.90;;;;;;5226608;28;20107;-63
2022/09/29 04:06:54;;;;;;;1999.90;999.90;;;19.30;99.90;;;;;;5226582;28;20514;-63
2022/09/29 04:09:25;;;;;;;1999.90;999.90;;;19.20;99.90;;;;;;5226363;28;20037;-62
2022/09/29 04:11:55;;;;;;;1999.90;999.90;;;19.30;99.90;;;;;;5226415;28;20021;-63
2022/09/29 04:14:26;;;;;;;1999.90;999.90;;;19.20;99.90;;;;;;5226481;28;20474;-63
2022/09/29 04:16:57;;;;;;;1999.90;999.90;;;19.30;99.90;;;;;;5226424;28;20025;-63
2022/09/29 04:19:28;;;;;;;1999.90;999.90;;;19.30;99.90;;;;;;5226396;28;20025;-63
2022/09/29 04:21:58;;;;;;;1999.90;999.90;;;19.30;99.90;;;;;;5226414;28;20465;-62
2022/09/29 04:24:29;;;;;;;1999.90;999.90;;;19.30;99.90;;;;;;5226365;28;20029;-62
2022/09/29 04:27:00;;;;;;;1999.90;999.90;;;19.30;99.90;;;;;;5226133;28;20055;-62
2022/09/29 04:29:31;;;;;;;1999.90;999.90;;;19.30;99.90;;;;;;5233128;28;20123;-63
2022/09/29 04:32:01;;;;;;;1999.90;999.90;;;19.30;99.90;;;;;;5247398;28;20459;-63
2022/09/29 04:34:33;;;;;;;1999.90;999.90;;;19.30;99.90;;;;;;5247731;28;20112;-65
2022/09/29 04:37:03;;;;;;;1999.90;999.90;;;19.30;99.90;;;;;;5246902;28;20032;-63
2022/09/29 04:39:34;;;;;;;1999.90;999.90;;;19.40;99.90;;;;;;5246885;28;20034;-63
2022/09/29 04:42:05;;;;;;;1999.90;999.90;;;19.30;99.90;;;;;;5247100;28;20032;-62
2022/09/29 04:44:36;;;;;;;1999.90;999.90;;;19.40;99.90;;;;;;5247069;28;20024;-63
2022/09/29 04:47:07;;;;;;;1999.90;999.90;;;19.30;99.90;;;;;;5246940;28;20490;-63
2022/09/29 04:49:38;;;;;;;1999.90;999.90;;;19.30;99.90;;;;;;5246744;28;20032;-63
2022/09/29 04:52:11;;;;;;;1999.90;999.90;;;19.40;99.90;;;;;;5246585;28;20081;-67
2022/09/29 04:54:41;;;;;;;1999.90;999.90;;;19.40;99.90;;;;;;5246545;28;20519;-63
2022/09/29 04:57:12;;;;;;;1999.90;999.90;;;19.30;99.90;;;;;;5246590;28;20052;-63
2022/09/29 04:59:43;;;;;;;1999.90;999.90;;;19.40;99.90;;;;;;5246697;28;20021;-63
2022/09/29 05:02:14;;;;;;;1999.90;999.90;;;19.30;99.90;;;;;;5227582;28;20437;-62
2022/09/29 05:04:46;;;;;;;1999.90;999.90;;;19.40;99.90;;;;;;5225940;28;20028;-62
2022/09/29 05:07:17;;;;;;;1999.90;999.90;;;19.40;99.90;;;;;;5225797;28;20029;-63
2022/09/29 05:09:47;;;;;;;1999.90;999.90;;;19.40;99.90;;;;;;5226004;28;20033;-63
2022/09/29 05:12:19;;;;;;;1999.90;999.90;;;19.40;99.90;;;;;;5225696;28;20025;-63
2022/09/29 05:14:50;;;;;;;1999.90;999.90;;;19.50;99.90;;;;;;5225752;28;20146;-62
2022/09/29 05:17:21;;;;;;;1999.90;999.90;;;19.60;99.90;;;;;;5225659;28;20029;-62
2022/09/29 05:19:52;;;;;;;1999.90;999.90;;;19.60;99.90;;;;;;5225712;28;20025;-63
2022/09/29 05:22:24;;;;;;;1999.90;999.90;;;19.70;99.90;;;;;;5225752;28;20107;-63
2022/09/29 05:24:55;;;;;;;1999.90;999.90;;;19.70;99.90;;;;;;5225195;28;20082;-62
2022/09/29 05:27:26;;;;;;;1999.90;999.90;;;19.80;99.90;;;;;;5225610;28;20055;-62
2022/09/29 05:32:32;;;;;;;1999.90;999.90;;;19.90;99.90;;;;;;5167265;28;20117;-66
2022/09/29 05:35:04;;;;;;;1999.90;999.90;;;19.90;99.90;;;;;;5178791;28;20030;-65
2022/09/29 05:37:35;;;;;;;1999.90;999.90;;;20.00;99.90;;;;;;5176687;28;20816;-64
2022/09/29 05:40:07;;;;;;;1999.90;999.90;;;20.00;99.90;;;;;;5031259;28;141031;-66
2022/09/29 05:43:01;;;;;;;1999.90;999.90;;;20.00;99.90;;;;;;5297040;27;20795;-65
2022/09/29 05:45:31;;;;;;;1999.90;999.90;;;20.10;99.90;;;;;;5304119;27;20027;-62
2022/09/29 05:48:02;;;;;;;1999.90;999.90;;;20.10;99.90;;;;;;5289558;27;20051;-63
2022/09/29 05:50:40;;;;;;;1999.90;999.90;;;20.20;99.90;;;;;;5254644;27;20052;-65
2022/09/29 05:53:11;;;;;;;1999.90;999.90;;;20.20;99.90;;;;;;5227750;28;20024;-65
